Time;durP1;ratioP1;P1;durP2;ratioP2;P2;SDS_P1;SDS_P2;PMS_P1;PMS_P2;Temp;Humidity;BMP_temperature;BMP_pressure;BME280_temperature;BME280_humidity;BME280_pressure;Samples;Min_cycle;Max_cycle;Signal;HPM_P1;HPM_P2
2021/01/15 06:01:59;;;;;;;25.33;10.50;;;1.00;97.30;;;;;;5333473;23;20878;-77
2021/01/15 06:04:31;;;;;;;23.40;11.20;;;1.00;97.30;;;;;;4917781;29;20468;-77
2021/01/15 06:07:18;;;;;;;20.47;9.67;;;1.00;97.30;;;;;;4917654;29;20473;-77
2021/01/15 06:09:46;;;;;;;22.70;9.20;;;1.00;97.30;;;;;;4917373;29;20417;-77
2021/01/15 06:12:18;;;;;;;22.87;10.50;;;1.00;97.30;;;;;;4902432;29;20448;-77
2021/01/15 06:14:59;;;;;;;19.77;9.70;;;1.00;97.30;;;;;;4901536;29;20452;-77
2021/01/15 06:17:25;;;;;;;23.43;9.37;;;1.00;97.30;;;;;;4900337;29;20922;-77
2021/01/15 06:20:04;;;;;;;24.03;9.40;;;1.00;97.30;;;;;;4901636;29;20433;-77
2021/01/15 06:22:44;;;;;;;20.40;9.30;;;1.00;97.30;;;;;;4900002;29;20535;-76
2021/01/15 06:25:31;;;;;;;21.70;8.87;;;0.90;97.30;;;;;;4901183;29;20472;-76
2021/01/15 06:28:02;;;;;;;24.10;8.50;;;0.90;97.30;;;;;;4900474;29;20417;-76
2021/01/15 06:30:34;;;;;;;20.77;8.90;;;0.90;97.30;;;;;;4900689;29;20418;-76
2021/01/15 06:33:16;;;;;;;18.60;8.90;;;0.90;97.30;;;;;;4900725;29;20425;-77
2021/01/15 06:35:45;;;;;;;18.00;8.67;;;0.80;97.30;;;;;;4901235;29;20425;-77
2021/01/15 06:38:19;;;;;;;16.70;8.00;;;0.80;97.30;;;;;;4900165;29;20424;-76
2021/01/15 06:40:50;;;;;;;22.00;9.17;;;0.80;97.30;;;;;;4898872;29;20474;-76
2021/01/15 06:43:19;;;;;;;19.70;8.83;;;0.80;97.30;;;;;;4900636;29;20667;-76
2021/01/15 06:45:50;;;;;;;19.67;8.50;;;0.80;97.30;;;;;;4897807;29;20426;-76
2021/01/15 06:48:21;;;;;;;22.97;9.17;;;0.80;97.30;;;;;;4897578;29;20414;-76
2021/01/15 06:50:49;;;;;;;24.07;9.77;;;0.80;97.30;;;;;;4893105;29;20997;-76
2021/01/15 06:53:27;;;;;;;24.57;9.50;;;0.80;97.30;;;;;;4897819;29;20856;-76
2021/01/15 06:55:57;;;;;;;21.70;9.33;;;0.80;97.30;;;;;;4896449;29;20417;-76
2021/01/15 06:58:26;;;;;;;22.20;9.40;;;0.80;97.30;;;;;;4898731;29;20428;-77
2021/01/15 07:01:17;;;;;;;27.47;11.80;;;0.80;97.30;;;;;;4897338;29;20888;-76
2021/01/15 07:04:08;;;;;;;26.33;9.57;;;0.80;97.30;;;;;;4897945;29;20457;-76
2021/01/15 07:06:37;;;;;;;21.03;8.73;;;0.80;97.30;;;;;;4899743;29;20405;-76
2021/01/15 07:09:08;;;;;;;20.70;9.23;;;0.80;97.30;;;;;;4897461;29;20422;-76
2021/01/15 07:11:42;;;;;;;21.87;9.40;;;0.80;97.30;;;;;;4898167;29;20472;-76
2021/01/15 07:14:07;;;;;;;25.10;10.30;;;0.80;97.30;;;;;;4898587;29;20410;-76
2021/01/15 07:16:36;;;;;;;23.30;10.27;;;0.80;97.30;;;;;;4898791;29;20765;-76
2021/01/15 07:19:05;;;;;;;21.40;8.80;;;0.70;97.30;;;;;;4898034;29;20674;-76
2021/01/15 07:21:36;;;;;;;23.80;9.53;;;0.80;97.30;;;;;;4897933;29;20438;-77
2021/01/15 07:24:09;;;;;;;21.30;9.27;;;0.70;97.30;;;;;;4897186;29;20472;-77
2021/01/15 07:26:42;;;;;;;22.70;10.00;;;0.70;97.30;;;;;;4898039;29;20425;-76
2021/01/15 07:29:15;;;;;;;17.80;8.63;;;0.70;97.30;;;;;;4897767;29;20772;-76
2021/01/15 07:31:44;;;;;;;19.30;9.07;;;0.70;97.30;;;;;;4897178;29;20525;-76
2021/01/15 07:34:16;;;;;;;22.80;9.63;;;0.80;97.30;;;;;;4897977;29;20422;-76
2021/01/15 07:36:42;;;;;;;23.33;9.30;;;0.70;97.30;;;;;;4897462;29;20429;-76
2021/01/15 07:39:10;;;;;;;25.60;10.57;;;0.70;97.30;;;;;;4898238;29;20413;-76
2021/01/15 07:41:48;;;;;;;22.20;8.80;;;0.70;97.30;;;;;;4897450;29;20230;-73
2021/01/15 07:44:23;;;;;;;21.30;8.60;;;0.70;97.30;;;;;;4895318;29;20445;-77
2021/01/15 07:46:53;;;;;;;18.13;8.60;;;0.70;97.30;;;;;;4918151;29;20413;-76
2021/01/15 07:49:19;;;;;;;18.50;8.93;;;0.80;97.30;;;;;;4897656;29;20416;-76
2021/01/15 07:52:07;;;;;;;21.50;8.70;;;0.80;97.30;;;;;;4897308;29;20967;-76
2021/01/15 07:54:49;;;;;;;24.60;9.90;;;0.80;97.30;;;;;;4896958;29;20462;-76
2021/01/15 07:57:19;;;;;;;20.70;9.50;;;0.80;97.30;;;;;;4897213;29;20437;-76
2021/01/15 07:59:46;;;;;;;23.63;9.30;;;0.90;97.30;;;;;;4896635;29;20414;-76
2021/01/15 08:02:15;;;;;;;25.53;10.23;;;0.90;97.30;;;;;;4895080;29;20937;-76
2021/01/15 08:04:41;;;;;;;24.77;10.70;;;0.90;97.30;;;;;;4888415;29;20482;-76
2021/01/15 08:07:24;;;;;;;19.83;8.90;;;0.90;97.30;;;;;;4878040;29;20791;-76
2021/01/15 08:09:50;;;;;;;18.77;8.93;;;0.90;97.30;;;;;;4894152;29;20189;-76
2021/01/15 08:12:16;;;;;;;20.37;9.20;;;0.90;97.30;;;;;;4878423;29;20458;-76
2021/01/15 08:14:42;;;;;;;18.73;9.57;;;0.90;97.30;;;;;;4878445;29;20185;-76
2021/01/15 08:17:11;;;;;;;20.40;8.60;;;0.90;97.30;;;;;;4881412;29;20547;-77
2021/01/15 08:19:38;;;;;;;20.10;10.03;;;0.90;97.30;;;;;;4883154;29;20192;-76
2021/01/15 08:22:12;;;;;;;21.40;8.60;;;0.90;97.30;;;;;;4882911;29;20501;-76
2021/01/15 08:24:48;;;;;;;23.10;9.23;;;0.90;97.30;;;;;;4883923;29;20474;-77
2021/01/15 08:27:19;;;;;;;19.73;8.07;;;0.90;97.30;;;;;;4882150;29;20783;-76
2021/01/15 08:29:45;;;;;;;29.60;10.37;;;0.90;97.30;;;;;;4881883;29;20433;-77
2021/01/15 08:32:11;;;;;;;18.57;7.87;;;0.90;97.30;;;;;;4882640;29;20434;-77
2021/01/15 08:34:38;;;;;;;17.53;8.60;;;0.90;97.30;;;;;;4881874;29;20426;-76
2021/01/15 08:37:10;;;;;;;22.17;9.07;;;0.90;97.30;;;;;;4881616;29;20468;-76
2021/01/15 08:39:50;;;;;;;18.40;8.57;;;1.00;97.30;;;;;;4882530;29;20428;-76
2021/01/15 08:42:17;;;;;;;21.00;8.90;;;1.00;97.30;;;;;;4881831;29;20823;-77
2021/01/15 08:44:47;;;;;;;18.27;8.93;;;1.00;97.30;;;;;;4891884;29;20507;-77
2021/01/15 08:47:15;;;;;;;18.97;9.13;;;1.00;97.30;;;;;;4883433;29;20443;-77
2021/01/15 08:49:55;;;;;;;19.60;8.97;;;1.10;97.30;;;;;;4881523;29;20426;-77
2021/01/15 08:52:29;;;;;;;17.70;9.13;;;1.10;97.30;;;;;;4881782;29;20438;-77
2021/01/15 08:54:55;;;;;;;17.90;8.90;;;1.10;97.30;;;;;;4882372;29;20483;-77
2021/01/15 08:57:28;;;;;;;19.47;8.93;;;1.10;97.30;;;;;;4885242;29;20423;-77
2021/01/15 08:59:53;;;;;;;15.90;7.73;;;1.00;97.30;;;;;;4901620;29;20795;-77
2021/01/15 09:02:21;;;;;;;14.63;7.37;;;1.10;97.30;;;;;;4900477;29;20461;-76
2021/01/15 09:04:48;;;;;;;17.17;8.50;;;1.10;97.30;;;;;;4899929;29;20235;-77
2021/01/15 09:07:15;;;;;;;16.60;7.77;;;1.00;97.30;;;;;;4900103;29;20421;-77
2021/01/15 09:09:41;;;;;;;14.70;7.23;;;1.00;97.30;;;;;;4900729;29;20417;-77
2021/01/15 09:12:09;;;;;;;13.83;7.10;;;1.00;97.30;;;;;;4899523;29;20475;-77
2021/01/15 09:14:38;;;;;;;19.00;8.67;;;0.90;97.30;;;;;;4900155;29;20426;-77
2021/01/15 09:17:05;;;;;;;17.00;7.87;;;0.90;97.30;;;;;;4900410;29;20426;-76
2021/01/15 09:19:31;;;;;;;17.20;8.40;;;0.90;97.30;;;;;;4900901;29;20435;-77
2021/01/15 09:22:04;;;;;;;17.97;8.80;;;0.90;97.30;;;;;;4899771;29;20946;-76
2021/01/15 09:24:30;;;;;;;16.40;8.33;;;0.80;97.30;;;;;;4900363;29;20461;-76
2021/01/15 09:27:00;;;;;;;15.60;8.23;;;0.80;97.30;;;;;;4898710;29;20437;-76
2021/01/15 09:29:27;;;;;;;25.10;10.23;;;0.80;97.30;;;;;;4900188;29;20426;-76
2021/01/15 09:31:53;;;;;;;21.10;9.27;;;0.80;97.30;;;;;;4899833;29;20535;-76
2021/01/15 09:34:21;;;;;;;21.23;9.60;;;0.80;97.30;;;;;;4900716;29;20419;-76
2021/01/15 09:36:48;;;;;;;22.27;9.27;;;0.80;97.30;;;;;;4899855;29;20425;-76
2021/01/15 09:39:15;;;;;;;24.97;9.00;;;0.70;97.30;;;;;;4899680;29;20429;-76
2021/01/15 09:41:46;;;;;;;20.17;9.00;;;0.80;97.30;;;;;;4899048;29;20476;-76
2021/01/15 09:44:13;;;;;;;17.37;8.20;;;0.70;97.30;;;;;;4900031;29;20834;-76
2021/01/15 09:46:39;;;;;;;21.53;9.80;;;0.70;97.30;;;;;;4899850;29;20418;-77
2021/01/15 09:49:05;;;;;;;20.60;9.87;;;0.70;97.30;;;;;;4899095;29;20422;-76
2021/01/15 09:51:31;;;;;;;21.27;9.53;;;0.70;97.30;;;;;;4900817;29;20493;-76
2021/01/15 09:53:58;;;;;;;20.60;8.93;;;0.80;97.30;;;;;;4900862;29;20425;-76
2021/01/15 09:56:31;;;;;;;18.90;8.93;;;0.70;97.30;;;;;;4901249;29;20188;-77
2021/01/15 09:58:59;;;;;;;18.80;9.03;;;0.70;97.30;;;;;;4900342;29;20430;-77
2021/01/15 10:01:25;;;;;;;20.93;9.67;;;0.70;97.30;;;;;;4899777;29;20507;-76
2021/01/15 10:03:56;;;;;;;19.37;7.53;;;0.70;97.30;;;;;;4899729;29;21061;-76
2021/01/15 10:06:22;;;;;;;22.27;8.90;;;0.70;97.30;;;;;;4899059;29;20911;-76
2021/01/15 10:08:48;;;;;;;21.87;8.73;;;0.70;97.30;;;;;;4899034;29;20445;-76
2021/01/15 10:11:25;;;;;;;24.27;9.17;;;0.70;97.30;;;;;;4899224;29;20501;-76
2021/01/15 10:13:59;;;;;;;19.40;8.57;;;0.70;97.30;;;;;;4899723;29;20456;-76
2021/01/15 10:16:25;;;;;;;18.43;8.40;;;0.70;97.30;;;;;;4898985;29;20953;-76
2021/01/15 10:18:52;;;;;;;19.70;8.43;;;0.70;97.30;;;;;;4898647;29;20417;-76
2021/01/15 10:21:19;;;;;;;17.93;8.03;;;0.80;97.30;;;;;;4899357;29;20477;-76
2021/01/15 10:23:45;;;;;;;15.53;8.17;;;0.70;97.30;;;;;;4898563;29;20461;-76
2021/01/15 10:26:11;;;;;;;14.87;7.50;;;0.80;97.30;;;;;;4899864;29;20986;-76
2021/01/15 10:28:36;;;;;;;16.30;8.73;;;0.70;97.30;;;;;;4899028;29;20742;-76
2021/01/15 10:31:02;;;;;;;14.77;7.37;;;0.70;97.30;;;;;;4898561;29;20200;-76
2021/01/15 10:33:28;;;;;;;22.67;9.07;;;0.80;97.30;;;;;;4898217;29;20177;-75
2021/01/15 10:35:53;;;;;;;21.70;7.40;;;0.80;97.30;;;;;;4900251;29;20174;-76
2021/01/15 10:38:19;;;;;;;18.60;8.33;;;0.80;97.30;;;;;;4898294;29;20300;-76
2021/01/15 10:40:45;;;;;;;20.03;8.70;;;0.80;97.30;;;;;;4898121;29;20227;-76
2021/01/15 10:43:12;;;;;;;20.27;8.57;;;0.80;97.30;;;;;;4898914;29;20181;-76
2021/01/15 10:45:38;;;;;;;18.30;9.17;;;0.80;97.30;;;;;;4899831;29;20433;-76
2021/01/15 10:48:05;;;;;;;27.13;9.37;;;0.80;97.30;;;;;;4897905;29;20433;-76
2021/01/15 10:50:31;;;;;;;23.73;9.97;;;0.80;97.30;;;;;;4898574;29;21010;-76
2021/01/15 10:52:57;;;;;;;21.20;9.13;;;0.80;97.30;;;;;;4898503;29;20520;-76
2021/01/15 10:55:23;;;;;;;20.97;9.70;;;0.80;97.30;;;;;;4899988;29;20169;-76
2021/01/15 10:57:49;;;;;;;23.60;9.13;;;0.80;97.30;;;;;;4897538;29;20418;-76
2021/01/15 11:00:18;;;;;;;20.30;8.73;;;0.80;97.30;;;;;;4898022;29;20179;-76
2021/01/15 11:02:48;;;;;;;19.60;9.03;;;0.80;97.30;;;;;;4898292;29;20449;-76
2021/01/15 11:05:14;;;;;;;21.60;8.60;;;0.80;97.30;;;;;;4897751;29;20983;-76
2021/01/15 11:07:41;;;;;;;18.60;8.73;;;0.80;97.30;;;;;;4897744;29;20931;-76
2021/01/15 11:10:07;;;;;;;20.63;8.87;;;0.80;97.30;;;;;;4898761;29;20484;-76
2021/01/15 11:12:33;;;;;;;24.00;9.37;;;0.70;97.30;;;;;;4897480;29;20782;-75
2021/01/15 11:14:59;;;;;;;19.43;8.60;;;0.70;97.30;;;;;;4897899;29;20485;-76
2021/01/15 11:17:24;;;;;;;22.27;9.17;;;0.70;97.30;;;;;;4898122;29;20181;-76
2021/01/15 11:19:50;;;;;;;21.60;8.73;;;0.60;97.30;;;;;;4897652;29;20194;-76
2021/01/15 11:22:16;;;;;;;18.63;8.97;;;0.70;97.30;;;;;;4897582;29;20682;-76
2021/01/15 11:24:41;;;;;;;19.90;8.40;;;0.70;97.30;;;;;;4898035;29;20220;-75
2021/01/15 11:27:07;;;;;;;19.20;9.80;;;0.60;97.30;;;;;;4897342;29;20256;-76
2021/01/15 11:29:33;;;;;;;18.67;8.73;;;0.60;97.30;;;;;;4897502;29;20232;-75
2021/01/15 11:31:59;;;;;;;22.97;9.60;;;0.50;97.30;;;;;;4898169;29;20228;-76
2021/01/15 11:34:25;;;;;;;20.57;9.20;;;0.50;97.30;;;;;;4897212;29;20278;-76
2021/01/15 11:36:50;;;;;;;22.70;8.60;;;0.50;97.30;;;;;;4897505;29;20422;-75
2021/01/15 11:39:16;;;;;;;20.77;9.43;;;0.40;97.30;;;;;;4898199;29;20189;-75
2021/01/15 11:41:43;;;;;;;21.87;9.40;;;0.40;97.30;;;;;;4897194;29;20280;-75
2021/01/15 11:44:13;;;;;;;16.60;8.20;;;0.50;97.30;;;;;;4897465;29;20205;-76
2021/01/15 11:46:39;;;;;;;21.20;9.50;;;0.40;97.30;;;;;;4898346;29;20436;-76
2021/01/15 11:49:05;;;;;;;22.40;9.30;;;0.40;97.30;;;;;;4897019;29;20417;-76
2021/01/15 11:51:31;;;;;;;22.73;9.13;;;0.40;97.30;;;;;;4896607;29;20208;-75
2021/01/15 11:53:57;;;;;;;25.87;9.90;;;0.40;97.30;;;;;;4898064;29;20189;-76
2021/01/15 11:56:23;;;;;;;24.90;8.67;;;0.40;97.30;;;;;;4897022;29;20421;-75
2021/01/15 11:58:49;;;;;;;24.97;10.60;;;0.50;97.30;;;;;;4896758;29;20177;-76
2021/01/15 12:01:15;;;;;;;25.33;10.70;;;0.50;97.30;;;;;;4897465;29;20555;-76
2021/01/15 12:03:41;;;;;;;20.80;10.37;;;0.50;97.30;;;;;;4898163;29;20856;-76
2021/01/15 12:06:07;;;;;;;27.33;12.10;;;0.50;97.30;;;;;;4897223;29;20514;-76
2021/01/15 12:08:33;;;;;;;24.77;10.57;;;0.50;97.30;;;;;;4897480;29;20313;-75
2021/01/15 12:11:02;;;;;;;35.50;14.30;;;0.50;97.30;;;;;;4896682;29;20197;-75
2021/01/15 12:13:28;;;;;;;19.13;9.20;;;0.50;97.30;;;;;;4897128;29;20425;-76
2021/01/15 12:15:55;;;;;;;19.80;8.93;;;0.50;97.30;;;;;;4897579;29;20919;-76
2021/01/15 12:18:22;;;;;;;20.03;9.00;;;0.50;97.30;;;;;;4896675;29;20425;-76
2021/01/15 12:20:49;;;;;;;20.33;9.13;;;0.50;97.30;;;;;;4896998;29;20955;-76
2021/01/15 12:23:16;;;;;;;25.40;9.47;;;0.50;97.30;;;;;;4897396;29;20418;-75
2021/01/15 12:25:42;;;;;;;22.60;10.93;;;0.50;97.30;;;;;;4896767;29;20425;-75
2021/01/15 12:28:09;;;;;;;22.10;9.33;;;0.50;97.30;;;;;;4897755;29;20409;-75
2021/01/15 12:30:35;;;;;;;22.50;10.60;;;0.40;97.30;;;;;;4897409;29;20207;-75
2021/01/15 12:33:05;;;;;;;24.20;11.20;;;0.40;97.30;;;;;;4896601;29;20449;-75
2021/01/15 12:35:31;;;;;;;27.23;11.40;;;0.40;97.30;;;;;;4897056;29;20445;-75
2021/01/15 12:38:06;;;;;;;27.00;10.90;;;0.40;97.30;;;;;;4897538;29;20428;-76
2021/01/15 12:40:33;;;;;;;22.60;10.23;;;0.40;97.30;;;;;;4896483;29;20177;-75
2021/01/15 12:42:59;;;;;;;24.77;10.80;;;0.40;97.30;;;;;;4896891;29;20561;-75
2021/01/15 12:45:25;;;;;;;19.23;9.40;;;0.40;97.30;;;;;;4897211;29;20544;-75
2021/01/15 12:47:51;;;;;;;23.40;10.80;;;0.40;97.30;;;;;;4896481;29;20273;-76
2021/01/15 12:50:16;;;;;;;27.90;11.67;;;0.40;97.30;;;;;;4896870;29;20582;-76
2021/01/15 12:52:42;;;;;;;27.83;11.67;;;0.50;97.30;;;;;;4897268;29;20180;-75
2021/01/15 12:55:08;;;;;;;23.87;10.40;;;0.50;97.30;;;;;;4897554;29;20788;-76
2021/01/15 12:57:35;;;;;;;24.97;11.07;;;0.50;97.30;;;;;;4896374;29;20181;-76
2021/01/15 13:00:01;;;;;;;19.70;10.00;;;0.50;97.30;;;;;;4897226;29;20943;-76
2021/01/15 13:02:27;;;;;;;24.60;10.13;;;0.60;97.30;;;;;;4897786;29;20469;-75
2021/01/15 13:04:52;;;;;;;25.20;9.40;;;0.60;97.30;;;;;;4901151;29;20457;-75
2021/01/15 13:07:18;;;;;;;18.70;9.40;;;0.60;97.30;;;;;;4901532;29;20549;-75
2021/01/15 13:09:44;;;;;;;21.40;9.13;;;0.60;97.30;;;;;;4898521;29;20220;-76
2021/01/15 13:12:09;;;;;;;19.63;9.00;;;0.50;97.30;;;;;;4890225;29;20230;-75
2021/01/15 13:14:36;;;;;;;26.77;10.40;;;0.60;97.30;;;;;;4881608;29;20182;-75
2021/01/15 13:17:02;;;;;;;22.50;9.43;;;0.60;97.30;;;;;;4880489;29;20206;-75
2021/01/15 13:19:28;;;;;;;22.63;10.33;;;0.60;97.30;;;;;;4882344;29;20422;-75
2021/01/15 13:21:54;;;;;;;19.13;9.40;;;0.70;97.30;;;;;;4882699;29;20441;-75
2021/01/15 13:24:19;;;;;;;18.40;9.10;;;0.70;97.30;;;;;;4880423;29;20675;-75
2021/01/15 13:26:48;;;;;;;19.70;9.40;;;0.60;97.30;;;;;;4881109;29;20924;-75
2021/01/15 13:29:14;;;;;;;20.47;9.70;;;0.60;97.30;;;;;;4882774;29;20180;-75
2021/01/15 13:31:40;;;;;;;24.07;10.03;;;0.60;97.30;;;;;;4880768;29;20448;-75
2021/01/15 13:34:06;;;;;;;22.30;10.23;;;0.50;97.30;;;;;;4881050;29;20422;-75
2021/01/15 13:36:35;;;;;;;21.40;10.20;;;0.50;97.30;;;;;;4891544;29;20244;-75
2021/01/15 13:39:01;;;;;;;20.03;10.07;;;0.40;97.30;;;;;;4896905;29;21014;-75
2021/01/15 13:41:28;;;;;;;26.90;11.60;;;0.40;97.30;;;;;;4900076;29;20453;-75
2021/01/15 13:43:54;;;;;;;24.23;10.00;;;0.40;97.30;;;;;;4899159;29;20201;-75
2021/01/15 13:46:20;;;;;;;22.10;11.07;;;0.40;97.30;;;;;;4900136;29;20425;-75
2021/01/15 13:48:45;;;;;;;24.60;10.80;;;0.30;97.30;;;;;;4899400;29;20418;-75
2021/01/15 13:51:17;;;;;;;16.60;9.10;;;0.30;97.30;;;;;;4899563;29;20280;-74
2021/01/15 13:53:43;;;;;;;21.90;9.40;;;0.30;97.30;;;;;;4899015;29;20192;-74
2021/01/15 13:56:09;;;;;;;18.57;9.47;;;0.30;97.30;;;;;;4899123;29;20418;-74
2021/01/15 13:58:37;;;;;;;21.83;9.57;;;0.30;97.30;;;;;;4899561;29;20564;-74
2021/01/15 14:01:03;;;;;;;17.20;9.27;;;0.30;97.30;;;;;;4898718;29;20463;-74
2021/01/15 14:03:29;;;;;;;22.70;10.27;;;0.30;97.30;;;;;;4900551;29;20418;-74
2021/01/15 14:05:54;;;;;;;19.13;10.20;;;0.30;97.30;;;;;;4899283;29;20304;-75
2021/01/15 14:08:20;;;;;;;16.63;9.00;;;0.30;97.30;;;;;;4898516;29;20185;-74
2021/01/15 14:10:46;;;;;;;24.70;10.47;;;0.30;97.30;;;;;;4898943;29;20616;-74
2021/01/15 14:13:12;;;;;;;19.53;9.20;;;0.20;97.30;;;;;;4898980;29;20188;-74
2021/01/15 14:15:38;;;;;;;23.50;8.67;;;0.30;97.30;;;;;;4898264;29;20425;-74
2021/01/15 14:18:04;;;;;;;21.00;9.63;;;0.20;97.30;;;;;;4897440;29;20201;-74
2021/01/15 14:20:30;;;;;;;22.10;9.13;;;0.20;97.30;;;;;;4898777;29;20481;-75
2021/01/15 14:22:56;;;;;;;22.70;9.40;;;0.20;97.30;;;;;;4898181;29;20414;-75
2021/01/15 14:25:22;;;;;;;15.57;8.20;;;0.20;97.30;;;;;;4898656;29;20213;-74
2021/01/15 14:27:49;;;;;;;18.83;8.57;;;0.10;97.30;;;;;;4898686;29;20433;-75
2021/01/15 14:30:16;;;;;;;20.67;7.60;;;0.10;97.30;;;;;;4899131;29;20420;-74
2021/01/15 14:32:53;;;;;;;22.43;8.83;;;0.10;97.30;;;;;;4898860;29;20498;-74
2021/01/15 14:35:20;;;;;;;19.53;8.90;;;0.00;97.30;;;;;;4899557;29;20509;-75
2021/01/15 14:37:53;;;;;;;12.83;6.30;;;0.00;97.30;;;;;;4898140;29;20426;-74
2021/01/15 14:40:21;;;;;;;13.53;6.80;;;0.00;97.30;;;;;;4897995;29;20928;-74
2021/01/15 14:42:48;;;;;;;17.20;7.33;;;0.00;97.30;;;;;;4898351;29;20927;-74
2021/01/15 14:45:15;;;;;;;10.70;6.00;;;0.00;97.30;;;;;;4898263;29;20458;-74
2021/01/15 14:47:41;;;;;;;13.43;6.30;;;-0.10;97.30;;;;;;4897953;29;20421;-74
2021/01/15 14:50:11;;;;;;;14.17;6.43;;;-0.10;97.30;;;;;;4899151;29;20426;-74
2021/01/15 14:52:47;;;;;;;10.10;5.50;;;-0.10;97.30;;;;;;4897864;29;20989;-74
2021/01/15 14:55:15;;;;;;;14.80;5.70;;;-0.20;97.30;;;;;;4898516;29;20472;-74
2021/01/15 14:57:42;;;;;;;11.97;6.00;;;-0.20;97.30;;;;;;4899176;29;20432;-74
2021/01/15 15:00:11;;;;;;;11.23;5.70;;;-0.20;97.30;;;;;;4897019;29;20957;-74
2021/01/15 15:02:48;;;;;;;9.97;5.40;;;-0.20;97.30;;;;;;4899337;29;20461;-74
2021/01/15 15:05:16;;;;;;;17.77;6.80;;;-0.20;97.30;;;;;;4898829;29;20971;-74
2021/01/15 15:07:50;;;;;;;16.60;7.60;;;-0.20;97.30;;;;;;4881926;29;20418;-74
2021/01/15 15:10:19;;;;;;;11.00;5.47;;;-0.20;97.30;;;;;;4899108;29;20413;-75
2021/01/15 15:12:57;;;;;;;11.27;6.40;;;-0.20;97.30;;;;;;4898744;29;20421;-74
2021/01/15 15:15:24;;;;;;;15.43;6.37;;;-0.20;97.30;;;;;;4897542;29;20857;-74
2021/01/15 15:17:50;;;;;;;12.50;5.60;;;-0.30;97.30;;;;;;4899756;29;20416;-74
2021/01/15 15:20:18;;;;;;;15.30;7.60;;;-0.30;97.30;;;;;;4897423;29;20498;-75
2021/01/15 15:22:44;;;;;;;13.80;6.07;;;-0.30;97.30;;;;;;4897276;29;20413;-75
2021/01/15 15:25:11;;;;;;;10.33;5.27;;;-0.30;97.30;;;;;;4897610;29;20826;-75
2021/01/15 15:27:37;;;;;;;10.07;5.60;;;-0.30;97.30;;;;;;4898290;29;20409;-75
2021/01/15 15:30:04;;;;;;;14.97;5.53;;;-0.30;97.30;;;;;;4897289;29;20571;-75
2021/01/15 15:32:30;;;;;;;10.10;5.70;;;-0.30;97.30;;;;;;4898088;29;20786;-74
2021/01/15 15:34:56;;;;;;;11.07;5.60;;;-0.30;97.30;;;;;;4897351;29;20428;-75
2021/01/15 15:37:23;;;;;;;11.30;5.53;;;-0.30;97.30;;;;;;4897412;29;20214;-75
2021/01/15 15:39:49;;;;;;;11.53;5.80;;;-0.20;97.30;;;;;;4898035;29;20192;-75
2021/01/15 15:42:15;;;;;;;14.50;5.50;;;-0.20;97.30;;;;;;4897028;29;20442;-75
2021/01/15 15:44:40;;;;;;;8.67;5.23;;;-0.30;97.30;;;;;;4898895;29;20205;-75
2021/01/15 15:47:07;;;;;;;8.47;4.73;;;-0.30;97.30;;;;;;4897632;29;20181;-75
2021/01/15 15:49:33;;;;;;;7.70;4.37;;;-0.30;97.30;;;;;;4898323;29;20670;-75
2021/01/15 15:51:59;;;;;;;9.60;5.30;;;-0.40;97.30;;;;;;4897162;29;20442;-75
2021/01/15 15:54:25;;;;;;;13.03;5.83;;;-0.40;97.30;;;;;;4897914;29;20426;-75
2021/01/15 15:56:51;;;;;;;8.87;5.00;;;-0.40;97.30;;;;;;4896758;29;20185;-75
2021/01/15 15:59:17;;;;;;;11.03;5.23;;;-0.40;97.30;;;;;;4896502;29;20276;-75
2021/01/15 16:01:46;;;;;;;8.63;4.90;;;-0.40;97.30;;;;;;4896975;29;21021;-75
2021/01/15 16:04:13;;;;;;;8.03;4.70;;;-0.30;97.30;;;;;;4896707;29;20253;-73
2021/01/15 16:06:42;;;;;;;9.77;5.40;;;-0.30;97.30;;;;;;4896527;29;20932;-74
2021/01/15 16:09:08;;;;;;;8.60;5.00;;;-0.30;97.30;;;;;;4897943;29;20457;-75
2021/01/15 16:11:34;;;;;;;9.17;5.30;;;-0.20;97.30;;;;;;4896442;29;20564;-75
2021/01/15 16:14:00;;;;;;;12.70;5.00;;;-0.20;97.30;;;;;;4894692;29;20424;-74
2021/01/15 16:16:30;;;;;;;9.53;5.10;;;-0.20;97.30;;;;;;4899439;29;20456;-75
2021/01/15 16:18:55;;;;;;;9.00;4.00;;;-0.20;97.30;;;;;;4901130;29;20881;-74
2021/01/15 16:21:23;;;;;;;9.63;4.87;;;-0.20;97.30;;;;;;4895950;29;20446;-74
2021/01/15 16:23:50;;;;;;;11.57;5.43;;;-0.20;97.30;;;;;;4895327;29;20623;-74
2021/01/15 16:26:16;;;;;;;9.30;5.30;;;-0.10;97.30;;;;;;4897065;29;20473;-75
2021/01/15 16:28:42;;;;;;;10.80;5.47;;;-0.10;97.30;;;;;;4896171;29;20429;-74
2021/01/15 16:31:08;;;;;;;10.20;5.27;;;-0.10;97.30;;;;;;4896662;29;20947;-73
2021/01/15 16:33:35;;;;;;;8.13;4.90;;;0.00;97.30;;;;;;4895806;29;20433;-74
2021/01/15 16:36:01;;;;;;;10.77;5.33;;;0.00;97.30;;;;;;4897648;29;20181;-74
2021/01/15 16:38:27;;;;;;;13.30;5.90;;;0.00;97.30;;;;;;4899255;29;20421;-74
2021/01/15 16:40:59;;;;;;;11.10;5.63;;;0.00;97.30;;;;;;4899888;29;20472;-75
2021/01/15 16:43:25;;;;;;;11.80;5.53;;;0.10;97.30;;;;;;4899523;29;20696;-74
2021/01/15 16:45:51;;;;;;;9.17;5.40;;;0.10;97.30;;;;;;4899814;29;20497;-74
2021/01/15 16:48:17;;;;;;;10.30;5.23;;;0.10;97.30;;;;;;4899047;29;20491;-75
2021/01/15 16:50:43;;;;;;;10.10;5.50;;;0.10;97.30;;;;;;4900413;29;20532;-74
2021/01/15 16:53:10;;;;;;;11.90;5.20;;;0.20;97.30;;;;;;4900248;29;20188;-75
2021/01/15 16:55:40;;;;;;;10.17;5.70;;;0.20;97.30;;;;;;4899566;29;20444;-75
2021/01/15 16:58:11;;;;;;;20.40;6.00;;;0.20;97.30;;;;;;4901148;29;20813;-75
2021/01/15 17:00:38;;;;;;;9.37;5.40;;;0.20;97.30;;;;;;4899998;29;20480;-75
2021/01/15 17:03:05;;;;;;;13.10;6.40;;;0.20;97.30;;;;;;4897348;29;20535;-74
2021/01/15 17:05:31;;;;;;;12.10;5.53;;;0.10;97.30;;;;;;4898129;29;20468;-75
2021/01/15 17:07:58;;;;;;;8.83;4.90;;;0.10;97.30;;;;;;4898721;29;20816;-74
2021/01/15 17:10:25;;;;;;;13.57;6.13;;;0.00;97.30;;;;;;4897802;29;20432;-75
2021/01/15 17:12:59;;;;;;;11.20;5.97;;;0.00;97.30;;;;;;4897866;29;20445;-75
2021/01/15 17:15:26;;;;;;;11.67;6.47;;;-0.10;97.30;;;;;;4899161;29;20432;-75
2021/01/15 17:17:55;;;;;;;12.60;5.87;;;-0.10;97.30;;;;;;4898806;29;20429;-75
2021/01/15 17:20:21;;;;;;;10.37;5.73;;;-0.10;97.30;;;;;;4897443;29;20436;-74
2021/01/15 17:22:47;;;;;;;11.43;5.03;;;-0.10;97.30;;;;;;4898937;29;20445;-74
2021/01/15 17:25:17;;;;;;;11.20;6.40;;;0.00;97.30;;;;;;4898881;29;20590;-75
2021/01/15 17:27:45;;;;;;;10.80;5.37;;;0.00;97.30;;;;;;4898775;29;20220;-75
2021/01/15 17:30:12;;;;;;;11.93;5.80;;;0.00;97.30;;;;;;4899110;29;20429;-75
2021/01/15 17:32:38;;;;;;;13.70;5.60;;;0.00;97.30;;;;;;4897499;29;20571;-74
2021/01/15 17:35:05;;;;;;;10.90;5.37;;;0.00;97.30;;;;;;4898190;29;20512;-75
2021/01/15 17:37:37;;;;;;;9.57;5.40;;;0.00;97.30;;;;;;4898511;29;20457;-75
2021/01/15 17:40:05;;;;;;;11.33;5.40;;;-0.10;97.30;;;;;;4901200;29;20440;-74
2021/01/15 17:42:31;;;;;;;10.53;5.17;;;-0.10;97.30;;;;;;4896684;29;21428;-74
2021/01/15 17:44:58;;;;;;;12.63;6.43;;;-0.10;97.30;;;;;;4896535;29;20494;-75
2021/01/15 17:47:24;;;;;;;11.40;5.53;;;-0.10;97.30;;;;;;4898131;29;20432;-75
2021/01/15 17:49:52;;;;;;;9.47;4.93;;;-0.10;97.30;;;;;;4897841;29;20474;-75
2021/01/15 17:52:20;;;;;;;11.23;5.73;;;-0.10;97.30;;;;;;4896161;29;20476;-75
2021/01/15 17:54:47;;;;;;;10.03;5.20;;;-0.10;97.30;;;;;;4898644;29;20422;-75
2021/01/15 17:57:13;;;;;;;11.20;6.57;;;-0.10;97.30;;;;;;4896978;29;20429;-75
2021/01/15 17:59:39;;;;;;;9.63;5.37;;;-0.10;97.30;;;;;;4896807;29;20454;-74
2021/01/15 18:02:05;;;;;;;9.43;5.47;;;-0.10;97.30;;;;;;4870742;29;767010;-75
2021/01/15 18:04:30;;;;;;;10.03;5.40;;;-0.20;97.30;;;;;;4897776;29;20240;-75
2021/01/15 18:06:56;;;;;;;14.93;5.67;;;-0.20;97.30;;;;;;4898572;29;20193;-74
2021/01/15 18:09:22;;;;;;;12.50;6.20;;;-0.20;97.30;;;;;;4899235;29;20519;-75
2021/01/15 18:11:53;;;;;;;9.90;5.17;;;-0.20;97.30;;;;;;4899284;29;20538;-74
2021/01/15 18:14:19;;;;;;;9.40;5.47;;;-0.30;97.30;;;;;;4899205;29;20592;-74
2021/01/15 18:16:45;;;;;;;8.63;6.10;;;-0.30;97.30;;;;;;4900440;29;20944;-74
2021/01/15 18:19:10;;;;;;;11.03;5.43;;;-0.30;97.30;;;;;;4899555;29;20485;-75
2021/01/15 18:21:40;;;;;;;8.50;4.40;;;-0.30;97.30;;;;;;4898527;29;20585;-74
2021/01/15 18:24:08;;;;;;;10.07;5.63;;;-0.30;97.30;;;;;;4900096;29;20209;-74
2021/01/15 18:26:34;;;;;;;11.13;4.87;;;-0.40;97.30;;;;;;4898905;29;20437;-74
2021/01/15 18:29:00;;;;;;;8.57;5.13;;;-0.40;97.30;;;;;;4898103;29;20457;-74
2021/01/15 18:31:27;;;;;;;7.43;4.80;;;-0.40;97.30;;;;;;4899591;29;20524;-75
2021/01/15 18:33:53;;;;;;;10.00;4.67;;;-0.30;97.30;;;;;;4899462;29;20189;-75
2021/01/15 18:36:19;;;;;;;9.80;6.50;;;-0.30;97.30;;;;;;4899922;29;20453;-76
2021/01/15 18:38:45;;;;;;;11.57;4.90;;;-0.30;97.30;;;;;;4899502;29;20501;-74
2021/01/15 18:41:12;;;;;;;9.43;5.47;;;-0.40;97.30;;;;;;4899763;29;21273;-75
2021/01/15 18:43:38;;;;;;;9.13;5.07;;;-0.40;97.30;;;;;;4899284;29;20473;-74
2021/01/15 18:46:04;;;;;;;12.20;6.10;;;-0.40;97.30;;;;;;4898495;29;20425;-75
2021/01/15 18:48:29;;;;;;;9.00;4.60;;;-0.40;97.30;;;;;;4898435;29;20648;-74